sim
Sign-in with your pilot id or email,
or register
Callsign
Passwort

Schedule Details

Flight Number: DLH1767
Departure: Corfu International Airport (LGKR) at 10:15
Arrival: Munich Airport (EDDM) at 12:15
Route: Lufthansa Passenger Schedule. Enter filed route here before submitting Pirep.

Weather Information
Getting current METAR information for LGKR 231120Z 15010KT 9999 FEW020CB SCT035 24/20 Q1016 BECMG TSRA
Getting current METAR information for EDDM 231120Z 23007KT 9999 FEW007 BKN033 16/15 Q1010 NOSIG

Schedule Frequency

Route Map